createdAt,value
2018-12-16T00:00:32.703Z,0.60
2018-12-16T00:03:00.321Z,0.60
2018-12-16T00:05:28.879Z,0.80
2018-12-16T00:07:57.436Z,0.70
2018-12-16T00:10:25.038Z,0.80
2018-12-16T00:12:53.414Z,0.80
2018-12-16T00:15:20.985Z,0.90
2018-12-16T00:17:48.549Z,1.00
2018-12-16T00:20:16.209Z,1.10
2018-12-16T00:22:43.751Z,1.10
2018-12-16T00:25:13.639Z,1.00
2018-12-16T00:27:41.212Z,1.00
2018-12-16T00:30:08.790Z,1.00
2018-12-16T00:32:37.180Z,0.90
2018-12-16T00:35:04.772Z,0.90
2018-12-16T00:37:32.675Z,0.80
2018-12-16T00:40:00.261Z,0.80
2018-12-16T00:42:28.606Z,0.90
2018-12-16T00:44:56.460Z,0.90
2018-12-16T00:47:24.080Z,0.90
2018-12-16T00:49:51.630Z,0.90
2018-12-16T00:52:19.232Z,0.90
2018-12-16T00:54:46.820Z,0.90
2018-12-16T00:57:14.805Z,0.80
2018-12-16T00:59:42.391Z,0.80
2018-12-16T01:02:10.729Z,0.70
2018-12-16T01:04:38.334Z,0.70
2018-12-16T01:07:05.915Z,0.70
2018-12-16T01:09:34.340Z,0.60
2018-12-16T01:12:01.940Z,0.60
2018-12-16T01:14:30.290Z,0.70
2018-12-16T01:16:57.917Z,0.70
2018-12-16T01:19:26.002Z,0.70
2018-12-16T01:21:53.624Z,0.80
2018-12-16T01:24:21.214Z,0.80
2018-12-16T01:26:49.096Z,0.80
2018-12-16T01:29:16.714Z,0.80
2018-12-16T01:31:45.329Z,0.70
2018-12-16T01:34:12.954Z,0.70
2018-12-16T01:36:41.308Z,0.70
2018-12-16T01:39:08.896Z,0.70
2018-12-16T01:41:36.496Z,0.70
2018-12-16T01:44:04.084Z,0.80
2018-12-16T01:46:32.073Z,0.80
2018-12-16T01:48:59.649Z,0.80
2018-12-16T01:51:27.996Z,0.80
2018-12-16T01:53:55.603Z,0.80
2018-12-16T01:56:23.179Z,0.80
2018-12-16T01:58:51.440Z,0.80
2018-12-16T02:01:19.017Z,0.80
2018-12-16T02:03:46.606Z,0.90
2018-12-16T02:06:14.236Z,0.90
2018-12-16T02:08:41.846Z,0.90
2018-12-16T02:11:09.815Z,0.90
2018-12-16T02:13:37.782Z,1.00
2018-12-16T02:16:05.363Z,1.20
2018-12-16T02:18:33.002Z,1.30
2018-12-16T02:21:00.557Z,1.50
2018-12-16T02:23:28.465Z,1.50
2018-12-16T02:25:56.395Z,1.40
2018-12-16T02:28:23.979Z,1.30
2018-12-16T02:30:51.594Z,1.10
2018-12-16T02:33:19.188Z,1.10
2018-12-16T02:35:46.870Z,1.00
2018-12-16T02:38:14.491Z,0.90
2018-12-16T02:40:42.803Z,1.00
2018-12-16T02:43:10.439Z,1.00
2018-12-16T02:45:37.997Z,1.00
2018-12-16T02:48:05.624Z,1.00
2018-12-16T02:50:33.969Z,0.90
2018-12-16T02:53:04.728Z,0.90
2018-12-16T02:55:29.165Z,0.90
2018-12-16T02:57:56.737Z,0.90
2018-12-16T03:00:24.642Z,0.90
2018-12-16T03:02:52.234Z,0.90
2018-12-16T03:05:19.825Z,0.90
2018-12-16T03:07:47.438Z,0.90
2018-12-16T03:10:15.786Z,0.90
2018-12-16T03:12:44.050Z,0.90
2018-12-16T03:15:11.623Z,0.90
2018-12-16T03:17:39.212Z,1.10
2018-12-16T03:20:06.874Z,1.10
2018-12-16T03:22:34.446Z,1.30
2018-12-16T03:25:02.062Z,1.30
2018-12-16T03:27:29.642Z,1.30
2018-12-16T03:29:58.238Z,1.20
2018-12-16T03:32:25.731Z,1.20
2018-12-16T03:34:53.314Z,1.20
2018-12-16T03:37:21.411Z,1.20
2018-12-16T03:39:48.991Z,1.10
2018-12-16T03:42:16.606Z,1.10
2018-12-16T03:44:44.942Z,1.10
2018-12-16T03:47:12.529Z,1.10
2018-12-16T03:49:40.154Z,1.10
2018-12-16T03:52:07.737Z,1.10
2018-12-16T03:54:36.093Z,1.20
2018-12-16T03:57:03.737Z,1.10
2018-12-16T03:59:31.292Z,1.10
2018-12-16T04:01:59.181Z,1.30
2018-12-16T04:04:26.766Z,1.20
2018-12-16T04:06:55.114Z,1.20
2018-12-16T04:09:22.736Z,1.20
2018-12-16T04:11:50.316Z,1.20
2018-12-16T04:14:17.894Z,1.10
2018-12-16T04:16:46.743Z,1.00
2018-12-16T04:19:14.330Z,1.00
2018-12-16T04:21:41.906Z,0.90
2018-12-16T04:24:09.992Z,0.90
2018-12-16T04:26:37.576Z,0.90
2018-12-16T04:29:05.935Z,1.00
2018-12-16T04:31:33.824Z,1.00
2018-12-16T04:34:01.394Z,1.00
2018-12-16T04:36:29.753Z,1.00
2018-12-16T04:38:57.402Z,1.00
2018-12-16T04:41:27.364Z,1.00
2018-12-16T04:43:54.952Z,1.00
2018-12-16T04:46:22.555Z,1.00
2018-12-16T04:48:50.144Z,1.00
2018-12-16T04:51:17.812Z,0.90
2018-12-16T04:53:46.159Z,1.00
2018-12-16T04:56:13.750Z,0.90
2018-12-16T04:58:42.137Z,1.10
2018-12-16T05:01:09.713Z,1.10
2018-12-16T05:03:37.347Z,1.10
2018-12-16T05:06:04.918Z,1.10
2018-12-16T05:08:33.267Z,1.40
2018-12-16T05:11:00.900Z,1.40
2018-12-16T05:13:28.481Z,1.60
2018-12-16T05:15:56.844Z,1.70
2018-12-16T05:18:24.818Z,1.60
2018-12-16T05:20:52.429Z,1.50
2018-12-16T05:23:20.806Z,1.30
2018-12-16T05:25:49.159Z,1.30
2018-12-16T05:28:17.142Z,1.20
2018-12-16T05:30:44.735Z,1.30
2018-12-16T05:33:12.311Z,1.30
2018-12-16T05:35:39.941Z,1.20
2018-12-16T05:38:08.280Z,1.20
2018-12-16T05:40:36.271Z,1.20
2018-12-16T05:43:03.865Z,1.30
2018-12-16T05:45:31.441Z,1.50
2018-12-16T05:47:59.054Z,1.50
2018-12-16T05:50:26.643Z,1.40
2018-12-16T05:52:54.600Z,1.30
2018-12-16T05:55:22.173Z,1.40
2018-12-16T05:57:49.753Z,1.40
2018-12-16T06:00:17.363Z,1.40
2018-12-16T06:02:44.979Z,1.30
2018-12-16T06:05:13.821Z,1.20
2018-12-16T06:07:41.404Z,1.20
2018-12-16T06:10:09.752Z,1.20
2018-12-16T06:12:37.353Z,1.20
2018-12-16T06:15:04.954Z,1.20
2018-12-16T06:17:32.885Z,1.10
2018-12-16T06:20:01.241Z,1.10
2018-12-16T06:22:28.829Z,1.10
2018-12-16T06:24:56.428Z,1.10
2018-12-16T06:27:24.006Z,1.20
2018-12-16T06:29:51.644Z,1.30
2018-12-16T06:32:19.223Z,1.30
2018-12-16T06:34:47.092Z,1.20
2018-12-16T06:37:14.703Z,1.20
2018-12-16T06:39:43.045Z,1.20
2018-12-16T06:42:11.509Z,1.20
2018-12-16T06:44:39.097Z,1.20
2018-12-16T06:47:07.048Z,1.40
2018-12-16T06:49:34.691Z,1.40
2018-12-16T06:52:02.995Z,1.40
2018-12-16T06:54:31.036Z,1.40
2018-12-16T06:56:58.453Z,1.40
2018-12-16T06:59:26.027Z,1.40
2018-12-16T07:01:53.650Z,1.50
2018-12-16T07:04:21.224Z,1.40
2018-12-16T07:06:48.836Z,1.40
2018-12-16T07:09:16.425Z,1.40
2018-12-16T07:11:44.057Z,1.50
2018-12-16T07:14:11.648Z,1.50
2018-12-16T07:16:40.651Z,1.50
2018-12-16T07:19:07.209Z,1.50
2018-12-16T07:21:34.822Z,1.50
2018-12-16T07:24:09.053Z,1.50
2018-12-16T07:26:30.768Z,1.50
2018-12-16T07:28:58.444Z,1.50
2018-12-16T07:31:25.978Z,1.60
2018-12-16T07:33:54.405Z,1.50
2018-12-16T07:36:22.703Z,1.50
2018-12-16T07:38:50.693Z,1.50
2018-12-16T07:41:18.262Z,1.50
2018-12-16T07:43:46.178Z,1.40
2018-12-16T07:46:14.279Z,1.40
2018-12-16T07:48:41.862Z,1.30
2018-12-16T07:51:10.236Z,1.40
2018-12-16T07:53:37.849Z,1.40
2018-12-16T07:56:06.158Z,1.40
2018-12-16T07:58:33.799Z,1.40
2018-12-16T08:01:01.384Z,1.40
2018-12-16T08:03:28.970Z,1.40
2018-12-16T08:05:56.867Z,1.40
2018-12-16T08:08:24.456Z,1.40
2018-12-16T08:10:52.052Z,1.30
2018-12-16T08:13:20.720Z,1.40
2018-12-16T08:15:48.290Z,1.30
2018-12-16T08:18:17.139Z,1.40
2018-12-16T08:20:44.541Z,1.40
2018-12-16T08:23:12.146Z,1.40
2018-12-16T08:25:39.741Z,1.40
2018-12-16T08:28:08.150Z,1.50
2018-12-16T08:30:35.755Z,1.50
2018-12-16T08:33:03.357Z,1.50
2018-12-16T08:35:31.521Z,1.60
2018-12-16T08:37:59.114Z,1.60
2018-12-16T08:40:27.453Z,1.70
2018-12-16T08:42:55.924Z,1.70
2018-12-16T08:45:24.234Z,1.70
2018-12-16T08:47:51.817Z,1.70
2018-12-16T08:50:19.769Z,1.80
2018-12-16T08:52:47.347Z,1.80
2018-12-16T08:55:14.919Z,1.80
2018-12-16T08:57:42.519Z,1.90
2018-12-16T09:00:10.120Z,1.90
2018-12-16T09:02:38.673Z,2.10
2018-12-16T09:05:06.257Z,2.10
2018-12-16T09:07:37.227Z,2.20
2018-12-16T09:10:02.389Z,2.10
2018-12-16T09:12:29.958Z,2.30
2018-12-16T09:14:57.535Z,2.50
2018-12-16T09:17:26.114Z,2.50
2018-12-16T09:19:53.683Z,2.50
2018-12-16T09:22:21.270Z,2.50
2018-12-16T09:24:48.943Z,2.50
2018-12-16T09:27:16.957Z,2.50
2018-12-16T09:29:45.019Z,2.50
2018-12-16T09:32:13.715Z,2.40
2018-12-16T09:34:41.300Z,2.40
2018-12-16T09:37:08.885Z,2.40
2018-12-16T09:39:37.283Z,2.40
2018-12-16T09:42:04.856Z,2.40
2018-12-16T09:44:33.545Z,2.40
2018-12-16T09:47:01.422Z,2.40
2018-12-16T09:49:29.012Z,2.40
2018-12-16T09:51:56.618Z,2.40
2018-12-16T09:54:24.307Z,2.40
2018-12-16T09:56:51.893Z,2.50
2018-12-16T09:59:20.071Z,2.60
2018-12-16T10:01:47.652Z,2.60
2018-12-16T10:04:15.237Z,2.60
2018-12-16T10:06:43.591Z,2.60
2018-12-16T10:09:11.537Z,2.60
2018-12-16T10:11:39.102Z,2.60
2018-12-16T10:14:07.209Z,2.60
2018-12-16T10:16:34.744Z,2.70
2018-12-16T10:19:02.659Z,2.80
2018-12-16T10:21:30.603Z,2.90
2018-12-16T10:23:58.977Z,3.00
2018-12-16T10:26:26.560Z,3.00
2018-12-16T10:28:55.322Z,3.00
2018-12-16T10:31:22.904Z,2.90
2018-12-16T10:33:50.489Z,3.00
2018-12-16T10:36:18.391Z,3.00
2018-12-16T10:38:45.970Z,3.00
2018-12-16T10:41:13.546Z,3.00
2018-12-16T10:43:41.491Z,3.10
2018-12-16T10:46:09.106Z,3.20
2018-12-16T10:48:36.655Z,3.20
2018-12-16T10:51:05.323Z,3.20
2018-12-16T10:53:36.617Z,3.20
2018-12-16T10:56:03.356Z,3.20
2018-12-16T10:58:31.040Z,3.20
2018-12-16T11:01:17.876Z,3.20
2018-12-16T11:03:45.757Z,3.40
2018-12-16T11:06:13.338Z,3.40
2018-12-16T11:08:40.919Z,3.40
2018-12-16T11:11:09.864Z,3.40
2018-12-16T11:13:37.458Z,3.40
2018-12-16T11:16:05.817Z,3.40
2018-12-16T11:18:33.748Z,3.40
2018-12-16T11:21:01.722Z,3.40
2018-12-16T11:23:30.437Z,3.50
2018-12-16T11:25:58.507Z,3.50
2018-12-16T11:28:26.119Z,3.50
2018-12-16T11:30:53.706Z,3.50
2018-12-16T11:33:21.801Z,3.50
2018-12-16T11:35:50.753Z,3.50
2018-12-16T11:38:18.345Z,3.50
2018-12-16T11:40:46.926Z,3.60
2018-12-16T11:43:14.505Z,3.70
2018-12-16T11:45:42.082Z,3.70
2018-12-16T11:48:10.486Z,3.80
2018-12-16T11:50:38.137Z,3.80
2018-12-16T11:53:05.741Z,3.90
2018-12-16T11:55:33.427Z,3.90
2018-12-16T11:58:01.008Z,3.80
2018-12-16T12:00:28.964Z,3.80
2018-12-16T12:02:56.545Z,3.80
2018-12-16T12:05:24.122Z,3.80
2018-12-16T12:07:51.753Z,3.80
2018-12-16T12:10:19.343Z,3.80
2018-12-16T12:12:46.962Z,3.80
2018-12-16T12:15:15.514Z,3.90
2018-12-16T12:17:43.085Z,4.00
2018-12-16T12:20:10.695Z,4.00
2018-12-16T12:22:38.617Z,4.00
2018-12-16T12:25:06.223Z,4.00
2018-12-16T12:27:33.817Z,4.00
2018-12-16T12:30:01.441Z,4.00
2018-12-16T12:32:29.033Z,4.20
2018-12-16T12:34:57.443Z,4.60
2018-12-16T12:37:25.038Z,4.60
2018-12-16T12:39:52.608Z,4.60
2018-12-16T12:42:20.580Z,4.60
2018-12-16T12:44:48.173Z,4.60
2018-12-16T12:47:15.751Z,4.60
2018-12-16T12:49:45.368Z,4.60
2018-12-16T12:52:13.484Z,4.80
2018-12-16T12:54:41.071Z,4.80
2018-12-16T12:57:08.959Z,4.80
2018-12-16T12:59:36.560Z,4.90
2018-12-16T13:02:04.152Z,4.90
2018-12-16T13:04:32.194Z,4.80
2018-12-16T13:06:59.874Z,4.70
2018-12-16T13:09:27.502Z,4.60
2018-12-16T13:11:57.043Z,4.60
2018-12-16T13:14:23.352Z,4.60
2018-12-16T13:16:50.972Z,4.50
2018-12-16T13:19:18.873Z,4.50
2018-12-16T13:21:46.464Z,4.40
2018-12-16T13:24:14.041Z,4.40
2018-12-16T13:26:41.671Z,4.30
2018-12-16T13:29:09.246Z,4.30
2018-12-16T13:31:36.820Z,4.30
2018-12-16T13:34:04.900Z,4.30
2018-12-16T13:36:32.653Z,4.30
2018-12-16T13:39:00.211Z,4.40
2018-12-16T13:41:28.210Z,4.50
2018-12-16T13:43:56.560Z,4.50
2018-12-16T13:46:24.155Z,4.40
2018-12-16T13:49:04.819Z,4.40
2018-12-16T13:51:36.264Z,4.40
2018-12-16T13:54:04.473Z,4.40
2018-12-16T13:56:32.571Z,4.30
2018-12-16T13:59:04.918Z,4.30
2018-12-16T14:01:32.975Z,4.30
2018-12-16T14:04:03.281Z,4.20
2018-12-16T14:06:28.949Z,4.20
2018-12-16T14:08:56.822Z,4.10
2018-12-16T14:11:24.376Z,4.10
2018-12-16T14:13:51.955Z,4.10
2018-12-16T14:16:19.970Z,4.10
2018-12-16T14:18:48.331Z,4.10
2018-12-16T14:21:15.910Z,4.10
2018-12-16T14:23:43.866Z,4.10
2018-12-16T14:26:11.461Z,4.10
2018-12-16T14:28:39.089Z,4.30
2018-12-16T14:31:07.190Z,4.50
2018-12-16T14:33:38.890Z,4.50
2018-12-16T14:36:05.317Z,4.50
2018-12-16T14:38:33.157Z,4.50
2018-12-16T14:41:00.808Z,4.50
2018-12-16T14:43:28.353Z,4.60
2018-12-16T14:45:56.030Z,4.60
2018-12-16T14:48:23.578Z,4.60
2018-12-16T14:50:51.254Z,4.60
2018-12-16T14:53:18.881Z,4.50
2018-12-16T14:55:46.459Z,4.50
2018-12-16T14:58:14.051Z,4.50
2018-12-16T15:00:43.208Z,4.80
2018-12-16T15:03:10.755Z,4.70
2018-12-16T15:05:38.333Z,4.80
2018-12-16T15:08:09.486Z,4.80
2018-12-16T15:10:37.423Z,4.80
2018-12-16T15:13:09.595Z,4.70
2018-12-16T15:15:37.921Z,4.70
2018-12-16T15:18:05.585Z,4.70
2018-12-16T15:20:33.486Z,4.80
2018-12-16T15:23:01.411Z,4.80
2018-12-16T15:25:29.606Z,4.70
2018-12-16T15:27:57.965Z,4.50
2018-12-16T15:30:26.116Z,4.50
2018-12-16T15:32:53.889Z,4.40
2018-12-16T15:35:21.504Z,4.60
2018-12-16T15:37:49.452Z,4.60
2018-12-16T15:40:17.046Z,4.50
2018-12-16T15:42:44.686Z,4.50
2018-12-16T15:45:14.136Z,4.50
2018-12-16T15:47:40.207Z,4.40
2018-12-16T15:50:07.787Z,4.40
2018-12-16T15:52:36.267Z,4.40
2018-12-16T15:55:03.906Z,4.40
2018-12-16T15:57:31.759Z,4.40
2018-12-16T15:59:59.382Z,4.40
2018-12-16T16:02:26.993Z,4.40
2018-12-16T16:04:55.401Z,4.50
2018-12-16T16:07:22.977Z,4.50
2018-12-16T16:09:50.608Z,4.60
2018-12-16T16:12:18.266Z,4.60
2018-12-16T16:14:45.863Z,4.60
2018-12-16T16:17:13.505Z,4.60
2018-12-16T16:19:41.865Z,4.60
2018-12-16T16:22:10.804Z,4.50
2018-12-16T16:24:38.413Z,4.50
2018-12-16T16:27:06.044Z,4.50
2018-12-16T16:29:33.639Z,4.50
2018-12-16T16:32:01.224Z,4.40
2018-12-16T16:34:28.886Z,4.40
2018-12-16T16:36:56.920Z,4.40
2018-12-16T16:39:24.508Z,4.40
2018-12-16T16:41:52.494Z,4.50
2018-12-16T16:44:20.848Z,4.50
2018-12-16T16:46:49.583Z,4.40
2018-12-16T16:49:17.521Z,4.40
2018-12-16T16:51:45.136Z,4.50
2018-12-16T16:54:12.726Z,4.60
2018-12-16T16:56:40.706Z,4.50
2018-12-16T16:59:08.322Z,4.50
2018-12-16T17:01:35.909Z,4.40
2018-12-16T17:04:04.119Z,4.40
2018-12-16T17:06:31.713Z,4.40
2018-12-16T17:08:59.316Z,4.40
2018-12-16T17:11:28.482Z,4.30
2018-12-16T17:13:58.483Z,4.30
2018-12-16T17:16:24.804Z,4.20
2018-12-16T17:18:52.387Z,4.20
2018-12-16T17:21:19.993Z,4.20
2018-12-16T17:23:47.631Z,4.20
2018-12-16T17:26:15.230Z,4.20
2018-12-16T17:28:42.816Z,4.30
2018-12-16T17:31:11.518Z,4.20
2018-12-16T17:33:39.124Z,4.20
2018-12-16T17:36:06.701Z,4.10
2018-12-16T17:38:34.662Z,4.10
2018-12-16T17:41:02.347Z,4.00
2018-12-16T17:43:29.896Z,4.00
2018-12-16T17:45:59.272Z,4.10
2018-12-16T17:48:26.847Z,4.30
2018-12-16T17:50:54.435Z,4.50
2018-12-16T17:53:22.060Z,4.60
2018-12-16T17:55:49.640Z,4.50
2018-12-16T17:58:17.226Z,4.50
2018-12-16T18:00:44.839Z,4.40
2018-12-16T18:03:12.407Z,4.60
2018-12-16T18:05:39.989Z,4.60
2018-12-16T18:08:07.822Z,4.60
2018-12-16T18:10:35.401Z,4.60
2018-12-16T18:13:02.979Z,4.70
2018-12-16T18:15:30.662Z,4.70
2018-12-16T18:17:59.080Z,4.70
2018-12-16T18:20:26.739Z,4.70
2018-12-16T18:22:54.442Z,4.80
2018-12-16T18:25:22.014Z,5.00
2018-12-16T18:27:49.598Z,4.90
2018-12-16T18:30:18.641Z,5.00
2018-12-16T18:32:46.227Z,5.00
2018-12-16T18:35:13.906Z,5.00
2018-12-16T18:37:42.157Z,4.90
2018-12-16T18:40:09.873Z,4.90
2018-12-16T18:42:37.478Z,4.80
2018-12-16T18:45:05.379Z,4.70
2018-12-16T18:47:32.971Z,4.60
2018-12-16T18:50:00.564Z,4.50
2018-12-16T18:52:28.190Z,4.40
2018-12-16T18:54:55.796Z,4.30
2018-12-16T18:57:23.375Z,4.30
2018-12-16T18:59:50.985Z,4.30
2018-12-16T19:02:18.563Z,4.20
2018-12-16T19:04:46.200Z,4.20
2018-12-16T19:07:13.785Z,4.20
2018-12-16T19:09:41.372Z,4.20
2018-12-16T19:12:09.900Z,4.20
2018-12-16T19:14:37.436Z,4.20
2018-12-16T19:17:05.052Z,4.10
2018-12-16T19:19:34.567Z,4.10
2018-12-16T19:22:02.143Z,4.10
2018-12-16T19:24:29.731Z,4.10
2018-12-16T19:26:58.334Z,4.10
2018-12-16T19:29:25.641Z,4.20
2018-12-16T19:31:53.239Z,4.30
2018-12-16T19:34:21.179Z,4.50
2018-12-16T19:36:48.758Z,4.50
2018-12-16T19:39:16.330Z,4.50
2018-12-16T19:41:43.938Z,4.50
2018-12-16T19:44:11.515Z,4.40
2018-12-16T19:46:39.424Z,4.40
2018-12-16T19:49:07.311Z,4.30
2018-12-16T19:51:35.655Z,4.30
2018-12-16T19:54:03.278Z,4.20
2018-12-16T19:56:31.776Z,4.30
2018-12-16T19:58:59.404Z,4.40
2018-12-16T20:01:26.993Z,4.40
2018-12-16T20:04:00.421Z,4.40
2018-12-16T20:06:45.831Z,4.30
2018-12-16T20:09:14.494Z,4.30
2018-12-16T20:11:42.067Z,4.30
2018-12-16T20:14:09.646Z,4.30
2018-12-16T20:16:37.248Z,4.30
2018-12-16T20:19:04.875Z,4.30
2018-12-16T20:21:32.820Z,4.30
2018-12-16T20:24:00.395Z,4.30
2018-12-16T20:26:27.975Z,4.40
2018-12-16T20:28:55.586Z,4.60
2018-12-16T20:31:23.173Z,4.60
2018-12-16T20:33:50.822Z,4.50
2018-12-16T20:36:18.410Z,4.60
2018-12-16T20:38:46.754Z,4.70
2018-12-16T20:41:14.357Z,4.70
2018-12-16T20:43:42.725Z,4.80
2018-12-16T20:46:12.006Z,4.80
2018-12-16T20:48:39.577Z,4.80
2018-12-16T20:51:07.170Z,4.70
2018-12-16T20:53:34.778Z,4.80
2018-12-16T20:56:02.356Z,5.00
2018-12-16T20:58:30.521Z,5.00
2018-12-16T21:00:58.097Z,4.90
2018-12-16T21:03:25.679Z,4.80
2018-12-16T21:05:54.055Z,4.60
2018-12-16T21:08:22.430Z,4.50
2018-12-16T21:10:50.285Z,4.50
2018-12-16T21:13:36.154Z,4.50
2018-12-16T21:16:24.858Z,4.50
2018-12-16T21:18:53.297Z,4.60
2018-12-16T21:21:20.872Z,4.60
2018-12-16T21:23:49.138Z,4.60
2018-12-16T21:26:16.719Z,4.60
2018-12-16T21:28:44.798Z,4.60
2018-12-16T21:31:12.631Z,4.60
2018-12-16T21:33:40.226Z,4.60
2018-12-16T21:36:07.893Z,4.60
2018-12-16T21:38:35.533Z,4.60
2018-12-16T21:41:03.140Z,4.60
2018-12-16T21:43:30.731Z,4.70
2018-12-16T21:45:58.724Z,4.70
2018-12-16T21:48:26.221Z,4.70
2018-12-16T21:50:53.813Z,4.70
2018-12-16T21:53:21.437Z,4.70
2018-12-16T21:55:49.056Z,4.70
2018-12-16T21:58:16.734Z,4.80
2018-12-16T22:00:44.376Z,4.70
2018-12-16T22:03:12.001Z,4.80
2018-12-16T22:05:40.661Z,4.80
2018-12-16T22:08:08.462Z,4.80
2018-12-16T22:10:36.853Z,4.80
2018-12-16T22:13:04.285Z,4.80
2018-12-16T22:15:32.403Z,4.80
2018-12-16T22:18:08.062Z,4.80
2018-12-16T22:20:35.637Z,4.80
2018-12-16T22:23:05.170Z,4.80
2018-12-16T22:25:31.687Z,4.80
2018-12-16T22:27:59.279Z,4.80
2018-12-16T22:30:27.024Z,4.80
2018-12-16T22:32:54.581Z,4.80
2018-12-16T22:35:22.216Z,4.80
2018-12-16T22:37:49.802Z,4.80
2018-12-16T22:40:17.646Z,4.80
2018-12-16T22:42:45.291Z,4.80
2018-12-16T22:45:13.606Z,4.80
2018-12-16T22:47:41.239Z,4.80
2018-12-16T22:50:08.842Z,4.80
2018-12-16T22:52:36.448Z,4.90
2018-12-16T22:55:04.050Z,4.90
2018-12-16T22:57:31.643Z,4.90
2018-12-16T22:59:59.269Z,4.90
2018-12-16T23:02:26.869Z,5.00
2018-12-16T23:04:54.488Z,5.20
2018-12-16T23:07:22.112Z,5.20
2018-12-16T23:09:49.685Z,5.20
2018-12-16T23:12:17.335Z,5.30
2018-12-16T23:14:44.911Z,5.30
2018-12-16T23:17:12.490Z,5.30
2018-12-16T23:19:40.098Z,5.30
2018-12-16T23:22:07.674Z,5.20
2018-12-16T23:24:36.426Z,5.10
2018-12-16T23:27:04.376Z,5.10
2018-12-16T23:29:31.986Z,5.00
2018-12-16T23:32:00.368Z,5.10
2018-12-16T23:34:28.735Z,5.00
2018-12-16T23:36:56.683Z,5.00
2018-12-16T23:39:24.269Z,5.00
2018-12-16T23:41:52.605Z,4.90
2018-12-16T23:44:20.215Z,4.90
2018-12-16T23:46:48.569Z,4.90
2018-12-16T23:49:16.208Z,4.80
2018-12-16T23:51:43.797Z,4.80
2018-12-16T23:54:11.384Z,4.80
2018-12-16T23:56:39.022Z,4.70
2018-12-16T23:59:06.604Z,4.70
